sensor_id;sensor_type;location;lat;lon;timestamp;P1;durP1;ratioP1;P2;durP2;ratioP2
18194;SDS011;9223;50.988;3.162;2023-08-07T00:01:09;5.03;;;1.95;;
18194;SDS011;9223;50.988;3.162;2023-08-07T00:07:20;3.05;;;2.13;;
18194;SDS011;9223;50.988;3.162;2023-08-07T00:13:27;3.10;;;1.95;;
18194;SDS011;9223;50.988;3.162;2023-08-07T00:19:33;4.72;;;1.98;;
18194;SDS011;9223;50.988;3.162;2023-08-07T00:25:40;3.08;;;1.73;;
18194;SDS011;9223;50.988;3.162;2023-08-07T00:31:48;2.42;;;1.60;;
18194;SDS011;9223;50.988;3.162;2023-08-07T00:37:53;4.13;;;1.92;;
18194;SDS011;9223;50.988;3.162;2023-08-07T00:43:57;2.17;;;1.55;;
18194;SDS011;9223;50.988;3.162;2023-08-07T00:50:04;2.85;;;1.35;;
18194;SDS011;9223;50.988;3.162;2023-08-07T00:56:11;4.03;;;1.80;;
18194;SDS011;9223;50.988;3.162;2023-08-07T01:02:15;2.13;;;1.38;;
18194;SDS011;9223;50.988;3.162;2023-08-07T01:08:20;3.75;;;2.10;;
18194;SDS011;9223;50.988;3.162;2023-08-07T01:14:25;2.40;;;1.80;;
18194;SDS011;9223;50.988;3.162;2023-08-07T01:20:31;2.25;;;1.52;;
18194;SDS011;9223;50.988;3.162;2023-08-07T01:26:37;3.45;;;1.73;;
18194;SDS011;9223;50.988;3.162;2023-08-07T01:32:43;3.28;;;1.88;;
18194;SDS011;9223;50.988;3.162;2023-08-07T01:38:50;3.80;;;1.73;;
18194;SDS011;9223;50.988;3.162;2023-08-07T01:44:57;2.80;;;1.65;;
18194;SDS011;9223;50.988;3.162;2023-08-07T01:51:04;4.43;;;1.90;;
18194;SDS011;9223;50.988;3.162;2023-08-07T01:57:07;3.00;;;1.73;;
18194;SDS011;9223;50.988;3.162;2023-08-07T02:03:14;4.07;;;2.47;;
18194;SDS011;9223;50.988;3.162;2023-08-07T02:09:19;5.60;;;2.33;;
18194;SDS011;9223;50.988;3.162;2023-08-07T02:15:23;3.75;;;1.73;;
18194;SDS011;9223;50.988;3.162;2023-08-07T02:21:28;8.88;;;2.22;;
18194;SDS011;9223;50.988;3.162;2023-08-07T02:27:31;3.22;;;1.95;;
18194;SDS011;9223;50.988;3.162;2023-08-07T02:33:35;5.80;;;1.90;;
18194;SDS011;9223;50.988;3.162;2023-08-07T02:39:40;5.07;;;2.50;;
18194;SDS011;9223;50.988;3.162;2023-08-07T02:45:43;4.72;;;1.95;;
18194;SDS011;9223;50.988;3.162;2023-08-07T02:51:47;3.22;;;1.88;;
18194;SDS011;9223;50.988;3.162;2023-08-07T02:57:52;3.13;;;2.40;;
18194;SDS011;9223;50.988;3.162;2023-08-07T03:03:55;3.75;;;1.67;;
18194;SDS011;9223;50.988;3.162;2023-08-07T03:09:59;3.85;;;2.08;;
18194;SDS011;9223;50.988;3.162;2023-08-07T03:16:04;5.07;;;2.42;;
18194;SDS011;9223;50.988;3.162;2023-08-07T03:22:09;3.70;;;1.98;;
18194;SDS011;9223;50.988;3.162;2023-08-07T03:28:12;5.85;;;2.40;;
18194;SDS011;9223;50.988;3.162;2023-08-07T03:34:17;4.50;;;2.00;;
18194;SDS011;9223;50.988;3.162;2023-08-07T03:40:21;4.82;;;2.10;;
18194;SDS011;9223;50.988;3.162;2023-08-07T03:46:25;3.53;;;2.35;;
18194;SDS011;9223;50.988;3.162;2023-08-07T03:52:30;5.15;;;1.85;;
18194;SDS011;9223;50.988;3.162;2023-08-07T03:58:33;4.07;;;2.30;;
18194;SDS011;9223;50.988;3.162;2023-08-07T04:04:37;5.38;;;2.72;;
18194;SDS011;9223;50.988;3.162;2023-08-07T04:10:42;5.45;;;2.60;;
18194;SDS011;9223;50.988;3.162;2023-08-07T04:16:46;4.97;;;2.55;;
18194;SDS011;9223;50.988;3.162;2023-08-07T04:22:49;4.95;;;2.45;;
18194;SDS011;9223;50.988;3.162;2023-08-07T04:28:55;3.83;;;2.45;;
18194;SDS011;9223;50.988;3.162;2023-08-07T04:34:58;4.93;;;2.40;;
18194;SDS011;9223;50.988;3.162;2023-08-07T04:41:02;3.60;;;2.60;;
18194;SDS011;9223;50.988;3.162;2023-08-07T04:47:07;5.90;;;2.45;;
18194;SDS011;9223;50.988;3.162;2023-08-07T04:53:10;4.78;;;2.55;;
18194;SDS011;9223;50.988;3.162;2023-08-07T04:59:14;6.55;;;3.13;;
18194;SDS011;9223;50.988;3.162;2023-08-07T05:05:19;4.60;;;2.80;;
18194;SDS011;9223;50.988;3.162;2023-08-07T05:11:22;3.65;;;2.55;;
18194;SDS011;9223;50.988;3.162;2023-08-07T05:17:26;4.18;;;3.28;;
18194;SDS011;9223;50.988;3.162;2023-08-07T05:23:31;3.75;;;2.80;;
18194;SDS011;9223;50.988;3.162;2023-08-07T05:29:34;5.78;;;2.55;;
18194;SDS011;9223;50.988;3.162;2023-08-07T05:35:45;2.80;;;2.50;;
18194;SDS011;9223;50.988;3.162;2023-08-07T05:41:50;2.65;;;1.92;;
18194;SDS011;9223;50.988;3.162;2023-08-07T05:47:55;5.15;;;1.63;;
18194;SDS011;9223;50.988;3.162;2023-08-07T05:53:59;2.25;;;1.50;;
18194;SDS011;9223;50.988;3.162;2023-08-07T06:00:04;2.30;;;1.90;;
18194;SDS011;9223;50.988;3.162;2023-08-07T06:06:09;3.40;;;1.92;;
18194;SDS011;9223;50.988;3.162;2023-08-07T06:12:12;5.45;;;2.60;;
18194;SDS011;9223;50.988;3.162;2023-08-07T06:18:18;2.15;;;1.33;;
18194;SDS011;9223;50.988;3.162;2023-08-07T06:24:21;3.72;;;1.98;;
18194;SDS011;9223;50.988;3.162;2023-08-07T06:30:26;3.03;;;2.38;;
18194;SDS011;9223;50.988;3.162;2023-08-07T06:36:31;2.33;;;1.45;;
18194;SDS011;9223;50.988;3.162;2023-08-07T06:42:34;2.85;;;1.50;;
18194;SDS011;9223;50.988;3.162;2023-08-07T06:48:38;2.28;;;1.65;;
18194;SDS011;9223;50.988;3.162;2023-08-07T06:54:43;3.00;;;2.00;;
18194;SDS011;9223;50.988;3.162;2023-08-07T07:00:46;3.33;;;2.40;;
18194;SDS011;9223;50.988;3.162;2023-08-07T07:06:50;2.30;;;1.40;;
18194;SDS011;9223;50.988;3.162;2023-08-07T07:12:55;1.45;;;1.35;;
18194;SDS011;9223;50.988;3.162;2023-08-07T07:18:58;2.22;;;1.75;;
18194;SDS011;9223;50.988;3.162;2023-08-07T07:25:02;3.65;;;1.48;;
18194;SDS011;9223;50.988;3.162;2023-08-07T07:31:07;2.33;;;1.17;;
18194;SDS011;9223;50.988;3.162;2023-08-07T07:37:13;1.95;;;1.35;;
18194;SDS011;9223;50.988;3.162;2023-08-07T07:43:18;2.55;;;1.50;;
18194;SDS011;9223;50.988;3.162;2023-08-07T07:49:23;1.80;;;1.60;;
18194;SDS011;9223;50.988;3.162;2023-08-07T07:55:27;2.72;;;1.63;;
18194;SDS011;9223;50.988;3.162;2023-08-07T08:01:30;2.45;;;1.10;;
18194;SDS011;9223;50.988;3.162;2023-08-07T08:07:35;2.42;;;1.20;;
18194;SDS011;9223;50.988;3.162;2023-08-07T08:13:39;2.35;;;1.45;;
18194;SDS011;9223;50.988;3.162;2023-08-07T08:19:42;1.65;;;1.20;;
18194;SDS011;9223;50.988;3.162;2023-08-07T08:25:53;4.32;;;1.30;;
18194;SDS011;9223;50.988;3.162;2023-08-07T08:31:56;3.08;;;1.30;;
18194;SDS011;9223;50.988;3.162;2023-08-07T08:38:00;1.33;;;1.02;;
18194;SDS011;9223;50.988;3.162;2023-08-07T08:44:06;2.33;;;1.38;;
18194;SDS011;9223;50.988;3.162;2023-08-07T08:50:10;1.58;;;1.15;;
18194;SDS011;9223;50.988;3.162;2023-08-07T08:56:15;2.00;;;1.50;;
18194;SDS011;9223;50.988;3.162;2023-08-07T09:02:20;1.00;;;1.00;;
18194;SDS011;9223;50.988;3.162;2023-08-07T09:08:24;1.50;;;1.10;;
18194;SDS011;9223;50.988;3.162;2023-08-07T09:14:28;2.13;;;1.20;;
18194;SDS011;9223;50.988;3.162;2023-08-07T09:20:34;2.42;;;1.15;;
18194;SDS011;9223;50.988;3.162;2023-08-07T09:26:41;2.70;;;1.13;;
18194;SDS011;9223;50.988;3.162;2023-08-07T09:32:47;1.63;;;1.13;;
18194;SDS011;9223;50.988;3.162;2023-08-07T09:38:52;1.73;;;1.00;;
18194;SDS011;9223;50.988;3.162;2023-08-07T09:44:55;1.00;;;0.90;;
18194;SDS011;9223;50.988;3.162;2023-08-07T09:51:00;1.42;;;1.00;;
18194;SDS011;9223;50.988;3.162;2023-08-07T09:57:06;1.48;;;1.00;;
18194;SDS011;9223;50.988;3.162;2023-08-07T10:03:10;1.08;;;0.98;;
18194;SDS011;9223;50.988;3.162;2023-08-07T10:09:13;1.17;;;1.05;;
18194;SDS011;9223;50.988;3.162;2023-08-07T10:15:19;1.35;;;0.90;;
18194;SDS011;9223;50.988;3.162;2023-08-07T10:21:23;4.13;;;0.85;;
18194;SDS011;9223;50.988;3.162;2023-08-07T10:27:29;2.05;;;0.80;;
18194;SDS011;9223;50.988;3.162;2023-08-07T10:33:35;1.73;;;0.90;;
18194;SDS011;9223;50.988;3.162;2023-08-07T10:39:46;2.33;;;0.80;;
18194;SDS011;9223;50.988;3.162;2023-08-07T10:46:05;1.47;;;0.80;;
18194;SDS011;9223;50.988;3.162;2023-08-07T10:52:11;0.80;;;0.80;;
18194;SDS011;9223;50.988;3.162;2023-08-07T10:58:22;1.35;;;0.95;;
18194;SDS011;9223;50.988;3.162;2023-08-07T11:04:26;2.10;;;0.88;;
18194;SDS011;9223;50.988;3.162;2023-08-07T11:10:31;2.22;;;0.98;;
18194;SDS011;9223;50.988;3.162;2023-08-07T11:16:35;2.13;;;0.90;;
18194;SDS011;9223;50.988;3.162;2023-08-07T11:22:39;1.65;;;0.60;;
18194;SDS011;9223;50.988;3.162;2023-08-07T11:28:45;1.15;;;0.73;;
18194;SDS011;9223;50.988;3.162;2023-08-07T11:34:49;1.40;;;0.80;;
18194;SDS011;9223;50.988;3.162;2023-08-07T11:40:53;1.23;;;0.82;;
18194;SDS011;9223;50.988;3.162;2023-08-07T11:46:58;2.33;;;0.70;;
18194;SDS011;9223;50.988;3.162;2023-08-07T11:53:03;1.20;;;0.70;;
18194;SDS011;9223;50.988;3.162;2023-08-07T11:59:08;1.48;;;0.90;;
18194;SDS011;9223;50.988;3.162;2023-08-07T12:05:13;2.30;;;0.90;;
18194;SDS011;9223;50.988;3.162;2023-08-07T12:11:16;1.58;;;0.93;;
18194;SDS011;9223;50.988;3.162;2023-08-07T12:17:21;1.52;;;0.88;;
18194;SDS011;9223;50.988;3.162;2023-08-07T12:23:26;1.08;;;0.95;;
18194;SDS011;9223;50.988;3.162;2023-08-07T12:29:30;0.88;;;0.75;;
18194;SDS011;9223;50.988;3.162;2023-08-07T12:35:34;1.67;;;1.10;;
18194;SDS011;9223;50.988;3.162;2023-08-07T12:41:39;0.90;;;0.80;;
18194;SDS011;9223;50.988;3.162;2023-08-07T12:47:45;1.70;;;0.90;;
18194;SDS011;9223;50.988;3.162;2023-08-07T12:53:49;1.70;;;0.82;;
18194;SDS011;9223;50.988;3.162;2023-08-07T12:59:54;0.82;;;0.75;;
18194;SDS011;9223;50.988;3.162;2023-08-07T13:05:58;0.70;;;0.60;;
18194;SDS011;9223;50.988;3.162;2023-08-07T13:12:02;1.38;;;0.60;;
18194;SDS011;9223;50.988;3.162;2023-08-07T13:18:06;0.80;;;0.80;;
18194;SDS011;9223;50.988;3.162;2023-08-07T13:24:10;1.27;;;1.13;;
18194;SDS011;9223;50.988;3.162;2023-08-07T13:30:15;1.60;;;1.20;;
18194;SDS011;9223;50.988;3.162;2023-08-07T13:36:20;1.95;;;1.15;;
18194;SDS011;9223;50.988;3.162;2023-08-07T13:42:24;1.42;;;1.10;;
18194;SDS011;9223;50.988;3.162;2023-08-07T13:48:29;1.00;;;0.90;;
18194;SDS011;9223;50.988;3.162;2023-08-07T13:54:36;1.30;;;1.20;;
18194;SDS011;9223;50.988;3.162;2023-08-07T14:00:39;1.13;;;1.02;;
18194;SDS011;9223;50.988;3.162;2023-08-07T14:06:43;2.30;;;1.50;;
18194;SDS011;9223;50.988;3.162;2023-08-07T14:12:48;1.05;;;0.95;;
18194;SDS011;9223;50.988;3.162;2023-08-07T14:18:52;1.27;;;1.10;;
18194;SDS011;9223;50.988;3.162;2023-08-07T14:24:55;1.65;;;1.25;;
18194;SDS011;9223;50.988;3.162;2023-08-07T14:31:00;1.60;;;1.10;;
18194;SDS011;9223;50.988;3.162;2023-08-07T14:37:09;0.90;;;0.90;;
18194;SDS011;9223;50.988;3.162;2023-08-07T14:43:12;1.23;;;0.88;;
18194;SDS011;9223;50.988;3.162;2023-08-07T14:49:17;2.90;;;1.30;;
18194;SDS011;9223;50.988;3.162;2023-08-07T14:55:20;2.47;;;1.30;;
18194;SDS011;9223;50.988;3.162;2023-08-07T15:01:24;1.77;;;1.15;;
18194;SDS011;9223;50.988;3.162;2023-08-07T15:07:29;1.30;;;1.10;;
18194;SDS011;9223;50.988;3.162;2023-08-07T15:13:32;2.58;;;1.08;;
18194;SDS011;9223;50.988;3.162;2023-08-07T15:19:36;1.58;;;1.00;;
18194;SDS011;9223;50.988;3.162;2023-08-07T15:25:41;1.30;;;0.82;;
18194;SDS011;9223;50.988;3.162;2023-08-07T15:31:45;1.30;;;1.00;;
18194;SDS011;9223;50.988;3.162;2023-08-07T15:37:49;1.65;;;1.15;;
18194;SDS011;9223;50.988;3.162;2023-08-07T15:43:54;1.65;;;1.20;;
18194;SDS011;9223;50.988;3.162;2023-08-07T15:49:58;3.13;;;1.00;;
18194;SDS011;9223;50.988;3.162;2023-08-07T15:56:02;1.52;;;1.27;;
18194;SDS011;9223;50.988;3.162;2023-08-07T16:02:07;1.77;;;1.10;;
18194;SDS011;9223;50.988;3.162;2023-08-07T16:08:10;1.45;;;1.10;;
18194;SDS011;9223;50.988;3.162;2023-08-07T16:14:14;0.90;;;0.88;;
18194;SDS011;9223;50.988;3.162;2023-08-07T16:20:20;1.40;;;1.17;;
18194;SDS011;9223;50.988;3.162;2023-08-07T16:26:23;3.22;;;1.60;;
18194;SDS011;9223;50.988;3.162;2023-08-07T16:32:27;1.75;;;1.48;;
18194;SDS011;9223;50.988;3.162;2023-08-07T16:38:32;1.93;;;1.20;;
18194;SDS011;9223;50.988;3.162;2023-08-07T16:44:35;2.08;;;1.10;;
18194;SDS011;9223;50.988;3.162;2023-08-07T16:50:39;1.10;;;0.90;;
18194;SDS011;9223;50.988;3.162;2023-08-07T16:56:54;3.10;;;1.40;;
18194;SDS011;9223;50.988;3.162;2023-08-07T17:02:58;2.45;;;1.00;;
18194;SDS011;9223;50.988;3.162;2023-08-07T17:09:02;2.72;;;1.08;;
18194;SDS011;9223;50.988;3.162;2023-08-07T17:15:08;1.42;;;0.88;;
18194;SDS011;9223;50.988;3.162;2023-08-07T17:21:11;1.02;;;0.93;;
18194;SDS011;9223;50.988;3.162;2023-08-07T17:27:15;1.98;;;1.00;;
18194;SDS011;9223;50.988;3.162;2023-08-07T17:33:20;2.35;;;1.25;;
18194;SDS011;9223;50.988;3.162;2023-08-07T17:39:23;1.17;;;1.08;;
18194;SDS011;9223;50.988;3.162;2023-08-07T17:45:27;1.88;;;1.02;;
18194;SDS011;9223;50.988;3.162;2023-08-07T17:51:32;4.60;;;1.50;;
18194;SDS011;9223;50.988;3.162;2023-08-07T17:57:36;1.10;;;0.98;;
18194;SDS011;9223;50.988;3.162;2023-08-07T18:03:41;1.33;;;1.00;;
18194;SDS011;9223;50.988;3.162;2023-08-07T18:09:50;2.05;;;0.95;;
18194;SDS011;9223;50.988;3.162;2023-08-07T18:15:56;2.00;;;1.08;;
18194;SDS011;9223;50.988;3.162;2023-08-07T18:22:04;2.75;;;1.23;;
18194;SDS011;9223;50.988;3.162;2023-08-07T18:28:12;1.30;;;1.08;;
18194;SDS011;9223;50.988;3.162;2023-08-07T18:34:19;2.13;;;1.42;;
18194;SDS011;9223;50.988;3.162;2023-08-07T18:40:25;1.05;;;0.85;;
18194;SDS011;9223;50.988;3.162;2023-08-07T18:46:36;1.63;;;0.98;;
18194;SDS011;9223;50.988;3.162;2023-08-07T18:52:46;2.13;;;1.10;;
18194;SDS011;9223;50.988;3.162;2023-08-07T18:58:55;1.52;;;1.00;;
18194;SDS011;9223;50.988;3.162;2023-08-07T19:05:10;2.60;;;1.20;;
18194;SDS011;9223;50.988;3.162;2023-08-07T19:11:19;4.05;;;1.40;;
18194;SDS011;9223;50.988;3.162;2023-08-07T19:17:33;1.25;;;1.08;;
18194;SDS011;9223;50.988;3.162;2023-08-07T19:23:44;1.98;;;1.10;;
18194;SDS011;9223;50.988;3.162;2023-08-07T19:29:53;3.53;;;1.05;;
18194;SDS011;9223;50.988;3.162;2023-08-07T19:36:04;2.83;;;1.60;;
18194;SDS011;9223;50.988;3.162;2023-08-07T19:42:15;7.22;;;1.80;;
18194;SDS011;9223;50.988;3.162;2023-08-07T19:48:25;1.92;;;1.40;;
18194;SDS011;9223;50.988;3.162;2023-08-07T19:54:37;2.30;;;1.38;;
18194;SDS011;9223;50.988;3.162;2023-08-07T20:00:50;4.40;;;1.80;;
18194;SDS011;9223;50.988;3.162;2023-08-07T20:07:04;2.78;;;1.40;;
18194;SDS011;9223;50.988;3.162;2023-08-07T20:13:13;2.78;;;1.27;;
18194;SDS011;9223;50.988;3.162;2023-08-07T20:19:21;1.80;;;1.05;;
18194;SDS011;9223;50.988;3.162;2023-08-07T20:25:28;4.90;;;1.33;;
18194;SDS011;9223;50.988;3.162;2023-08-07T20:31:35;2.08;;;1.10;;
18194;SDS011;9223;50.988;3.162;2023-08-07T20:37:43;2.78;;;1.30;;
18194;SDS011;9223;50.988;3.162;2023-08-07T20:43:46;3.03;;;1.23;;
18194;SDS011;9223;50.988;3.162;2023-08-07T20:49:50;2.20;;;1.20;;
18194;SDS011;9223;50.988;3.162;2023-08-07T20:55:55;1.42;;;1.20;;
18194;SDS011;9223;50.988;3.162;2023-08-07T21:01:58;0.90;;;0.90;;
18194;SDS011;9223;50.988;3.162;2023-08-07T21:08:02;1.75;;;1.00;;
18194;SDS011;9223;50.988;3.162;2023-08-07T21:14:07;4.40;;;0.98;;
18194;SDS011;9223;50.988;3.162;2023-08-07T21:20:11;2.30;;;1.27;;
18194;SDS011;9223;50.988;3.162;2023-08-07T21:26:14;3.50;;;1.23;;
18194;SDS011;9223;50.988;3.162;2023-08-07T21:32:21;1.98;;;1.15;;
18194;SDS011;9223;50.988;3.162;2023-08-07T21:38:25;3.15;;;1.42;;
18194;SDS011;9223;50.988;3.162;2023-08-07T21:44:28;3.15;;;1.33;;
18194;SDS011;9223;50.988;3.162;2023-08-07T21:50:33;2.30;;;1.33;;
18194;SDS011;9223;50.988;3.162;2023-08-07T21:56:37;3.85;;;1.60;;
18194;SDS011;9223;50.988;3.162;2023-08-07T22:02:45;4.43;;;1.60;;
18194;SDS011;9223;50.988;3.162;2023-08-07T22:08:50;3.28;;;1.70;;
18194;SDS011;9223;50.988;3.162;2023-08-07T22:14:53;3.60;;;1.40;;
18194;SDS011;9223;50.988;3.162;2023-08-07T22:20:57;6.38;;;1.98;;
18194;SDS011;9223;50.988;3.162;2023-08-07T22:27:02;4.45;;;1.75;;
18194;SDS011;9223;50.988;3.162;2023-08-07T22:33:06;5.28;;;1.88;;
18194;SDS011;9223;50.988;3.162;2023-08-07T22:39:10;2.90;;;1.13;;
18194;SDS011;9223;50.988;3.162;2023-08-07T22:45:15;2.65;;;1.70;;
18194;SDS011;9223;50.988;3.162;2023-08-07T22:51:19;5.03;;;1.48;;
18194;SDS011;9223;50.988;3.162;2023-08-07T22:57:22;3.05;;;1.48;;
18194;SDS011;9223;50.988;3.162;2023-08-07T23:03:27;5.30;;;2.10;;
18194;SDS011;9223;50.988;3.162;2023-08-07T23:09:31;2.92;;;1.48;;
18194;SDS011;9223;50.988;3.162;2023-08-07T23:15:34;5.30;;;1.70;;
18194;SDS011;9223;50.988;3.162;2023-08-07T23:21:40;4.68;;;1.73;;
18194;SDS011;9223;50.988;3.162;2023-08-07T23:27:43;5.13;;;2.00;;
18194;SDS011;9223;50.988;3.162;2023-08-07T23:33:47;4.07;;;1.42;;
18194;SDS011;9223;50.988;3.162;2023-08-07T23:39:52;3.63;;;1.70;;
18194;SDS011;9223;50.988;3.162;2023-08-07T23:45:55;6.45;;;2.05;;
18194;SDS011;9223;50.988;3.162;2023-08-07T23:51:59;3.88;;;1.85;;
18194;SDS011;9223;50.988;3.162;2023-08-07T23:58:04;6.38;;;2.17;;
